Time,TemperatureF,DewpointF,PressureIn,WindDirection,WindDirectionDegrees,WindSpeedMPH,WindSpeedGustMPH,Humidity,HourlyPrecipIn,Conditions,Clouds,dailyrainin,SoftwareType,DateUTC
2013-05-24 00:07:00,63.3,62.7,29.70,WNW,292,0.0,-999.0,98,-99.99,,,0.00,Acu-Link.com,2013-05-24 04:07:00,
2013-05-24 00:22:00,63.1,62.5,29.70,NW,315,0.0,-999.0,98,-99.99,,,0.00,Acu-Link.com,2013-05-24 04:22:00,
2013-05-24 00:52:00,63.1,62.5,29.68,NW,315,0.0,-999.0,98,-99.99,,,0.01,Acu-Link.com,2013-05-24 04:52:00,
2013-05-24 01:07:00,63.0,62.4,29.68,North,0,0.0,-999.0,98,-99.99,,,0.08,Acu-Link.com,2013-05-24 05:07:00,
2013-05-24 01:23:00,62.8,62.2,29.68,NNW,337,0.0,-999.0,98,-99.99,,,0.10,Acu-Link.com,2013-05-24 05:23:00,
2013-05-24 01:38:00,62.8,62.2,29.68,NW,315,0.0,-999.0,98,-99.99,,,0.10,Acu-Link.com,2013-05-24 05:38:00,
2013-05-24 01:53:00,62.8,62.2,29.67,WNW,292,0.0,-999.0,98,-99.99,,,0.11,Acu-Link.com,2013-05-24 05:53:00,
2013-05-24 02:08:00,62.8,62.2,29.67,West,270,0.0,-999.0,98,-99.99,,,0.11,Acu-Link.com,2013-05-24 06:08:00,
2013-05-24 02:23:00,62.8,62.2,29.65,WNW,292,0.0,-999.0,98,-99.99,,,0.11,Acu-Link.com,2013-05-24 06:23:00,
2013-05-24 02:39:00,62.8,62.2,29.65,East,90,0.0,-999.0,98,-99.99,,,0.12,Acu-Link.com,2013-05-24 06:39:00,
2013-05-24 02:54:00,62.6,62.0,29.65,WSW,247,0.0,-999.0,98,-99.99,,,0.12,Acu-Link.com,2013-05-24 06:54:00,
2013-05-24 03:09:00,62.6,62.0,29.64,NW,315,0.0,-999.0,98,-99.99,,,0.14,Acu-Link.com,2013-05-24 07:09:00,
2013-05-24 03:25:00,62.6,62.0,29.64,NW,315,0.0,-999.0,98,-99.99,,,0.19,Acu-Link.com,2013-05-24 07:25:00,
2013-05-24 03:40:00,62.6,62.0,29.64,North,0,0.0,-999.0,98,-99.99,,,0.26,Acu-Link.com,2013-05-24 07:40:00,
2013-05-24 03:55:00,62.6,62.0,29.63,NW,315,0.0,-999.0,98,-99.99,,,0.38,Acu-Link.com,2013-05-24 07:55:00,
2013-05-24 04:10:00,62.8,62.2,29.64,NNW,337,0.0,-999.0,98,-99.99,,,0.41,Acu-Link.com,2013-05-24 08:10:00,
2013-05-24 04:26:00,62.8,62.2,29.63,WNW,292,0.0,-999.0,98,-99.99,,,0.41,Acu-Link.com,2013-05-24 08:26:00,
2013-05-24 04:41:00,62.6,62.0,29.63,WNW,292,0.0,-999.0,98,-99.99,,,0.41,Acu-Link.com,2013-05-24 08:41:00,
2013-05-24 04:56:00,62.6,62.0,29.62,WNW,292,0.0,-999.0,98,-99.99,,,0.41,Acu-Link.com,2013-05-24 08:56:00,
2013-05-24 05:11:00,62.6,62.0,29.62,ESE,112,0.0,-999.0,98,-99.99,,,0.42,Acu-Link.com,2013-05-24 09:11:00,
2013-05-24 05:26:00,62.4,61.8,29.62,West,270,0.0,-999.0,98,-99.99,,,0.43,Acu-Link.com,2013-05-24 09:26:00,
2013-05-24 05:42:00,62.2,61.6,29.61,NNE,22,0.0,-999.0,98,-99.99,,,0.43,Acu-Link.com,2013-05-24 09:42:00,
2013-05-24 05:57:00,62.1,61.5,29.61,North,0,0.0,-999.0,98,-99.99,,,0.44,Acu-Link.com,2013-05-24 09:57:00,
2013-05-24 06:12:00,62.1,61.5,29.60,WSW,247,0.0,-999.0,98,-99.99,,,0.45,Acu-Link.com,2013-05-24 10:12:00,
2013-05-24 06:27:00,62.2,61.6,29.60,West,270,0.0,-999.0,98,-99.99,,,0.46,Acu-Link.com,2013-05-24 10:27:00,
2013-05-24 06:42:00,62.2,61.6,29.60,West,270,0.0,-999.0,98,-99.99,,,0.47,Acu-Link.com,2013-05-24 10:42:00,
2013-05-24 06:57:00,62.2,61.6,29.60,West,270,0.0,-999.0,98,-99.99,,,0.48,Acu-Link.com,2013-05-24 10:57:00,
2013-05-24 07:13:00,62.4,61.8,29.59,West,270,0.0,-999.0,98,-99.99,,,0.48,Acu-Link.com,2013-05-24 11:13:00,
2013-05-24 07:28:00,62.8,62.2,29.59,West,270,0.0,-999.0,98,-99.99,,,0.49,Acu-Link.com,2013-05-24 11:28:00,
2013-05-24 07:43:00,63.0,62.4,29.60,West,270,0.0,-999.0,98,-99.99,,,0.49,Acu-Link.com,2013-05-24 11:43:00,
2013-05-24 07:59:00,63.1,62.5,29.59,West,270,0.0,-999.0,98,-99.99,,,0.50,Acu-Link.com,2013-05-24 11:59:00,
2013-05-24 08:14:00,63.9,63.3,29.59,SW,225,0.0,-999.0,98,-99.99,,,0.50,Acu-Link.com,2013-05-24 12:14:00,
2013-05-24 08:29:00,64.6,64.0,29.59,NE,45,0.0,-999.0,98,-99.99,,,0.50,Acu-Link.com,2013-05-24 12:29:00,
2013-05-24 08:44:00,64.6,64.0,29.60,ESE,112,0.0,-999.0,98,-99.99,,,0.50,Acu-Link.com,2013-05-24 12:44:00,
2013-05-24 08:59:00,65.1,64.5,29.61,West,270,0.0,-999.0,98,-99.99,,,0.50,Acu-Link.com,2013-05-24 12:59:00,
2013-05-24 09:15:00,65.3,64.7,29.62,ESE,112,0.0,-999.0,98,-99.99,,,0.50,Acu-Link.com,2013-05-24 13:15:00,
2013-05-24 09:30:00,65.3,64.7,29.62,NW,315,0.0,-999.0,98,-99.99,,,0.50,Acu-Link.com,2013-05-24 13:30:00,
2013-05-24 09:45:00,66.2,65.6,29.62,NW,315,0.0,-999.0,98,-99.99,,,0.50,Acu-Link.com,2013-05-24 13:45:00,
2013-05-24 10:00:00,66.4,65.8,29.63,NW,315,0.0,-999.0,98,-99.99,,,0.50,Acu-Link.com,2013-05-24 14:00:00,
2013-05-24 10:15:00,67.3,66.7,29.62,WNW,292,0.0,-999.0,98,-99.99,,,0.50,Acu-Link.com,2013-05-24 14:15:00,
2013-05-24 10:31:00,67.1,66.5,29.64,WSW,247,0.0,-999.0,98,-99.99,,,0.50,Acu-Link.com,2013-05-24 14:31:00,
2013-05-24 10:46:00,66.4,65.8,29.63,NW,315,0.0,-999.0,98,-99.99,,,0.50,Acu-Link.com,2013-05-24 14:46:00,
2013-05-24 11:01:00,65.7,65.1,29.63,South,180,0.0,-999.0,98,-99.99,,,0.50,Acu-Link.com,2013-05-24 15:01:00,
2013-05-24 11:16:00,65.3,64.7,29.63,NW,315,0.0,-999.0,98,-99.99,,,0.50,Acu-Link.com,2013-05-24 15:16:00,
2013-05-24 11:32:00,64.9,64.3,29.64,NW,315,0.0,-999.0,98,-99.99,,,0.50,Acu-Link.com,2013-05-24 15:32:00,
2013-05-24 11:47:00,64.4,63.8,29.64,East,90,0.0,-999.0,98,-99.99,,,0.65,Acu-Link.com,2013-05-24 15:47:00,
2013-05-24 12:03:00,65.8,65.2,29.64,WSW,247,0.0,-999.0,98,-99.99,,,0.70,Acu-Link.com,2013-05-24 16:03:00,
2013-05-24 12:18:00,66.7,66.1,29.65,WSW,247,0.0,-999.0,98,-99.99,,,0.70,Acu-Link.com,2013-05-24 16:18:00,
2013-05-24 12:33:00,66.4,65.8,29.65,East,90,0.0,-999.0,98,-99.99,,,0.70,Acu-Link.com,2013-05-24 16:33:00,
2013-05-24 12:48:00,63.9,63.3,29.66,NE,45,0.0,-999.0,98,-99.99,,,0.70,Acu-Link.com,2013-05-24 16:48:00,
2013-05-24 13:04:00,63.1,62.5,29.67,South,180,1.7,-999.0,98,-99.99,,,0.70,Acu-Link.com,2013-05-24 17:04:00,
2013-05-24 13:19:00,61.2,60.6,29.67,NE,45,0.0,-999.0,98,-99.99,,,0.70,Acu-Link.com,2013-05-24 17:19:00,
2013-05-24 13:34:00,61.0,60.4,29.68,ESE,112,0.0,-999.0,98,-99.99,,,0.70,Acu-Link.com,2013-05-24 17:34:00,
2013-05-24 13:49:00,60.4,59.8,29.69,North,0,0.0,-999.0,98,-99.99,,,0.70,Acu-Link.com,2013-05-24 17:49:00,
2013-05-24 14:05:00,58.8,58.2,29.69,NW,315,0.0,-999.0,98,-99.99,,,0.71,Acu-Link.com,2013-05-24 18:05:00,
2013-05-24 14:20:00,58.6,58.0,29.69,SSW,202,1.1,-999.0,98,-99.99,,,0.71,Acu-Link.com,2013-05-24 18:20:00,
2013-05-24 14:35:00,58.5,57.9,29.69,NNE,22,2.2,-999.0,98,-99.99,,,0.71,Acu-Link.com,2013-05-24 18:35:00,
2013-05-24 14:50:00,59.0,58.4,29.69,NNE,22,0.0,-999.0,98,-99.99,,,0.71,Acu-Link.com,2013-05-24 18:50:00,
2013-05-24 15:06:00,58.1,56.7,29.68,NW,315,3.2,-999.0,95,-99.99,,,0.71,Acu-Link.com,2013-05-24 19:06:00,
2013-05-24 15:21:00,58.8,56.5,29.68,NNE,22,3.7,-999.0,92,-99.99,,,0.71,Acu-Link.com,2013-05-24 19:21:00,
2013-05-24 15:36:00,59.5,55.9,29.68,WNW,292,5.8,-999.0,88,-99.99,,,0.71,Acu-Link.com,2013-05-24 19:36:00,
2013-05-24 15:52:00,59.9,55.4,29.69,NNE,22,6.3,-999.0,85,-99.99,,,0.71,Acu-Link.com,2013-05-24 19:52:00,
2013-05-24 16:07:00,59.0,54.5,29.70,NNE,22,3.7,-999.0,85,-99.99,,,0.71,Acu-Link.com,2013-05-24 20:07:00,
2013-05-24 16:22:00,58.8,53.6,29.70,North,0,4.7,-999.0,83,-99.99,,,0.71,Acu-Link.com,2013-05-24 20:22:00,
2013-05-24 16:37:00,57.7,52.9,29.72,NW,315,5.3,-999.0,84,-99.99,,,0.71,Acu-Link.com,2013-05-24 20:37:00,
2013-05-24 16:52:00,57.4,52.3,29.72,WNW,292,4.2,-999.0,83,-99.99,,,0.71,Acu-Link.com,2013-05-24 20:52:00,
2013-05-24 17:08:00,56.5,51.4,29.72,NNE,22,3.2,-999.0,83,-99.99,,,0.71,Acu-Link.com,2013-05-24 21:08:00,
2013-05-24 17:23:00,55.8,50.7,29.73,NW,315,3.2,-999.0,83,-99.99,,,0.71,Acu-Link.com,2013-05-24 21:23:00,
2013-05-24 17:38:00,55.4,51.3,29.73,NW,315,3.2,-999.0,86,-99.99,,,0.71,Acu-Link.com,2013-05-24 21:38:00,
2013-05-24 17:54:00,55.2,50.8,29.74,NW,315,2.7,-999.0,85,-99.99,,,0.71,Acu-Link.com,2013-05-24 21:54:00,
2013-05-24 18:09:00,55.0,50.3,29.74,WNW,292,2.7,-999.0,84,-99.99,,,0.71,Acu-Link.com,2013-05-24 22:09:00,
2013-05-24 18:24:00,54.7,49.6,29.75,NNE,22,3.2,-999.0,83,-99.99,,,0.71,Acu-Link.com,2013-05-24 22:24:00,
2013-05-24 18:39:00,54.1,49.7,29.76,NW,315,3.7,-999.0,85,-99.99,,,0.71,Acu-Link.com,2013-05-24 22:39:00,
2013-05-24 18:54:00,53.8,49.4,29.76,WNW,292,3.7,-999.0,85,-99.99,,,0.71,Acu-Link.com,2013-05-24 22:54:00,
2013-05-24 19:10:00,53.2,49.1,29.77,WNW,292,3.7,-999.0,86,-99.99,,,0.71,Acu-Link.com,2013-05-24 23:10:00,
2013-05-24 19:25:00,53.2,48.5,29.77,NE,45,1.7,-999.0,84,-99.99,,,0.71,Acu-Link.com,2013-05-24 23:25:00,
2013-05-24 19:40:00,53.1,48.7,29.77,NE,45,2.2,-999.0,85,-99.99,,,0.71,Acu-Link.com,2013-05-24 23:40:00,
2013-05-24 19:55:00,52.7,49.2,29.78,WNW,292,1.7,-999.0,88,-99.99,,,0.71,Acu-Link.com,2013-05-24 23:55:00,
2013-05-24 20:10:00,52.5,48.4,29.77,North,0,1.7,-999.0,86,-99.99,,,0.71,Acu-Link.com,2013-05-25 00:10:00,
2013-05-24 20:26:00,52.3,48.2,29.78,WNW,292,2.2,-999.0,86,-99.99,,,0.71,Acu-Link.com,2013-05-25 00:26:00,
2013-05-24 20:41:00,52.2,48.1,29.78,NE,45,1.7,-999.0,86,-99.99,,,0.71,Acu-Link.com,2013-05-25 00:41:00,
2013-05-24 20:56:00,51.8,48.1,29.79,NE,45,3.2,-999.0,87,-99.99,,,0.71,Acu-Link.com,2013-05-25 00:56:00,
2013-05-24 21:11:00,51.4,47.7,29.79,NE,45,1.1,-999.0,87,-99.99,,,0.71,Acu-Link.com,2013-05-25 01:11:00,
2013-05-24 21:26:00,51.1,47.7,29.79,NW,315,2.2,-999.0,88,-99.99,,,0.71,Acu-Link.com,2013-05-25 01:26:00,
2013-05-24 21:42:00,50.7,47.6,29.80,NNE,22,1.7,-999.0,89,-99.99,,,0.71,Acu-Link.com,2013-05-25 01:42:00,
2013-05-24 21:57:00,50.2,48.0,29.81,West,270,1.7,-999.0,92,-99.99,,,0.71,Acu-Link.com,2013-05-25 01:57:00,
2013-05-24 22:12:00,50.2,48.5,29.81,NW,315,0.0,-999.0,94,-99.99,,,0.71,Acu-Link.com,2013-05-25 02:12:00,
2013-05-24 22:28:00,49.6,48.2,29.82,NNE,22,1.7,-999.0,95,-99.99,,,0.71,Acu-Link.com,2013-05-25 02:28:00,
2013-05-24 22:43:00,48.7,48.2,29.82,WNW,292,0.0,-999.0,98,-99.99,,,0.71,Acu-Link.com,2013-05-25 02:43:00,
2013-05-24 22:58:00,48.2,47.7,29.82,NW,315,1.7,-999.0,98,-99.99,,,0.71,Acu-Link.com,2013-05-25 02:58:00,
2013-05-24 23:13:00,47.5,47.0,29.81,North,0,1.7,-999.0,98,-99.99,,,0.71,Acu-Link.com,2013-05-25 03:13:00,
2013-05-24 23:28:00,46.9,46.4,29.82,NNE,22,1.7,-999.0,98,-99.99,,,0.71,Acu-Link.com,2013-05-25 03:28:00,
2013-05-24 23:44:00,46.9,46.4,29.82,NNE,22,0.0,-999.0,98,-99.99,,,0.72,Acu-Link.com,2013-05-25 03:44:00,
2013-05-24 23:59:00,46.9,46.4,29.81,WNW,292,0.0,-999.0,98,-99.99,,,0.72,Acu-Link.com,2013-05-25 03:59:00,